createdAt,value
2023-05-01T00:02:03.923Z,62.17
2023-05-01T00:04:30.631Z,62.15
2023-05-01T00:06:57.906Z,62.25
2023-05-01T00:09:27.714Z,62.79
2023-05-01T00:11:54.492Z,63.20
2023-05-01T00:14:21.262Z,63.22
2023-05-01T00:16:48.151Z,63.10
2023-05-01T00:19:18.627Z,63.48
2023-05-01T00:21:48.738Z,63.54
2023-05-01T00:24:17.370Z,64.03
2023-05-01T00:26:44.457Z,64.41
2023-05-01T00:29:11.241Z,64.93
2023-05-01T00:31:37.972Z,64.78
2023-05-01T00:34:05.399Z,64.94
2023-05-01T00:36:32.338Z,64.86
2023-05-01T00:38:59.660Z,64.93
2023-05-01T00:41:26.484Z,65.23
2023-05-01T00:43:53.295Z,65.48
2023-05-01T00:46:20.290Z,65.81
2023-05-01T00:48:47.065Z,66.47
2023-05-01T00:51:14.208Z,66.44
2023-05-01T00:53:42.124Z,66.43
2023-05-01T00:56:08.954Z,66.78
2023-05-01T00:58:35.636Z,66.97
2023-05-01T01:01:02.481Z,66.95
2023-05-01T01:03:29.207Z,67.32
2023-05-01T01:06:21.924Z,67.71
2023-05-01T01:09:10.478Z,68.34
2023-05-01T01:11:50.156Z,68.48
2023-05-01T01:14:25.836Z,69.40
2023-05-01T01:17:08.869Z,69.53
2023-05-01T01:19:47.869Z,69.73
2023-05-01T01:22:21.272Z,69.86
2023-05-01T01:24:54.307Z,70.18
2023-05-01T01:28:06.136Z,70.06
2023-05-01T01:30:48.010Z,70.48
2023-05-01T01:33:40.567Z,70.90
2023-05-01T01:36:12.172Z,70.89
2023-05-01T01:38:47.392Z,71.11
2023-05-01T01:41:18.427Z,70.92
2023-05-01T01:43:59.089Z,71.14
2023-05-01T01:46:26.448Z,71.35
2023-05-01T01:48:54.219Z,71.34
2023-05-01T01:51:22.509Z,71.55
2023-05-01T01:53:54.325Z,71.77
2023-05-01T01:56:23.113Z,72.08
2023-05-01T01:58:51.458Z,72.33
2023-05-01T02:01:18.406Z,72.49
2023-05-01T02:03:46.312Z,72.40
2023-05-01T02:06:13.844Z,72.27
2023-05-01T02:08:41.436Z,72.47
2023-05-01T02:11:08.326Z,72.54
2023-05-01T02:13:36.621Z,72.56
2023-05-01T02:16:04.277Z,72.08
2023-05-01T02:18:31.822Z,72.18
2023-05-01T02:20:59.896Z,71.68
2023-05-01T02:23:28.220Z,72.19
2023-05-01T02:25:57.042Z,71.42
2023-05-01T02:28:24.812Z,71.73
2023-05-01T02:30:52.788Z,71.74
2023-05-01T02:33:19.457Z,71.91
2023-05-01T02:35:47.655Z,71.63
2023-05-01T02:38:15.314Z,71.93
2023-05-01T02:40:44.821Z,72.09
2023-05-01T02:43:13.424Z,72.38
2023-05-01T02:45:40.717Z,72.46
2023-05-01T02:48:08.384Z,73.04
2023-05-01T02:50:36.687Z,72.89
2023-05-01T02:53:03.364Z,72.97
2023-05-01T02:55:30.089Z,73.18
2023-05-01T02:58:00.118Z,73.29
2023-05-01T03:00:28.019Z,73.00
2023-05-01T03:02:54.917Z,73.36
2023-05-01T03:05:21.709Z,73.47
2023-05-01T03:07:48.648Z,73.53
2023-05-01T03:10:15.878Z,73.98
2023-05-01T03:12:42.615Z,74.26
2023-05-01T03:15:09.758Z,74.22
2023-05-01T03:17:36.475Z,74.62
2023-05-01T03:20:06.424Z,73.88
2023-05-01T03:22:33.393Z,74.05
2023-05-01T03:25:00.227Z,74.11
2023-05-01T03:27:26.913Z,74.10
2023-05-01T03:29:53.845Z,74.38
2023-05-01T03:32:20.816Z,74.02
2023-05-01T03:34:47.945Z,74.98
2023-05-01T03:37:15.380Z,74.76
2023-05-01T03:39:42.044Z,74.16
2023-05-01T03:42:08.738Z,74.45
2023-05-01T03:44:35.453Z,74.46
2023-05-01T03:47:02.219Z,74.00
2023-05-01T03:49:29.078Z,74.12
2023-05-01T03:51:55.795Z,74.34
2023-05-01T03:54:22.629Z,73.98
2023-05-01T03:56:49.340Z,74.09
2023-05-01T03:59:16.014Z,74.52
2023-05-01T04:01:42.686Z,74.65
2023-05-01T04:04:09.591Z,74.84
2023-05-01T04:06:37.325Z,74.80
2023-05-01T04:09:04.194Z,75.46
2023-05-01T04:11:30.858Z,75.42
2023-05-01T04:13:57.528Z,75.27
2023-05-01T04:16:25.094Z,75.12
2023-05-01T04:18:53.038Z,75.41
2023-05-01T04:21:19.821Z,75.51
2023-05-01T04:23:46.513Z,75.59
2023-05-01T04:26:13.281Z,75.75
2023-05-01T04:28:39.952Z,75.80
2023-05-01T04:31:06.996Z,75.98
2023-05-01T04:33:33.763Z,75.97
2023-05-01T04:36:01.174Z,76.18
2023-05-01T04:38:29.138Z,76.46
2023-05-01T04:40:56.415Z,76.51
2023-05-01T04:43:23.110Z,76.25
2023-05-01T04:45:49.862Z,76.35
2023-05-01T04:48:16.650Z,76.17
2023-05-01T04:50:43.482Z,76.57
2023-05-01T04:53:10.254Z,76.49
2023-05-01T04:55:37.248Z,76.48
2023-05-01T04:58:05.056Z,76.66
2023-05-01T05:00:31.782Z,76.34
2023-05-01T05:02:58.736Z,76.50
2023-05-01T05:05:25.525Z,76.11
2023-05-01T05:07:52.181Z,75.85
2023-05-01T05:10:18.943Z,75.75
2023-05-01T05:12:45.621Z,75.65
2023-05-01T05:15:12.287Z,75.55
2023-05-01T05:17:39.027Z,75.13
2023-05-01T05:20:06.456Z,74.63
2023-05-01T05:22:36.402Z,74.92
2023-05-01T05:25:04.573Z,74.62
2023-05-01T05:27:36.529Z,74.45
2023-05-01T05:30:06.380Z,74.00
2023-05-01T05:32:33.858Z,74.30
2023-05-01T05:35:00.653Z,73.77
2023-05-01T05:37:27.405Z,73.54
2023-05-01T05:39:54.468Z,72.80
2023-05-01T05:42:21.259Z,72.57
2023-05-01T05:44:48.007Z,72.21
2023-05-01T05:47:14.740Z,71.86
2023-05-01T05:49:41.568Z,70.82
2023-05-01T05:52:08.308Z,70.02
2023-05-01T05:54:34.997Z,69.31
2023-05-01T05:57:02.852Z,69.00
2023-05-01T05:59:29.544Z,68.31
2023-05-01T06:01:56.275Z,67.56
2023-05-01T06:04:23.039Z,67.04
2023-05-01T06:06:49.787Z,66.20
2023-05-01T06:09:17.424Z,65.43
2023-05-01T06:11:44.123Z,64.62
2023-05-01T06:14:10.940Z,64.16
2023-05-01T06:16:38.844Z,63.92
2023-05-01T06:19:06.217Z,63.54
2023-05-01T06:21:33.816Z,63.43
2023-05-01T06:24:00.576Z,63.22
2023-05-01T06:26:28.264Z,62.59
2023-05-01T06:28:55.159Z,62.62
2023-05-01T06:31:21.946Z,62.73
2023-05-01T06:33:48.668Z,62.15
2023-05-01T06:36:15.425Z,62.07
2023-05-01T06:38:48.368Z,61.69
2023-05-01T06:41:16.589Z,61.31
2023-05-01T06:43:43.625Z,61.64
2023-05-01T06:46:10.488Z,61.07
2023-05-01T06:48:37.206Z,61.53
2023-05-01T06:51:04.357Z,61.62
2023-05-01T06:53:31.193Z,61.44
2023-05-01T06:55:57.978Z,61.14
2023-05-01T06:58:24.818Z,60.57
2023-05-01T07:00:52.602Z,60.77
2023-05-01T07:03:19.560Z,60.64
2023-05-01T07:05:46.328Z,60.10
2023-05-01T07:08:13.138Z,60.38
2023-05-01T07:10:41.927Z,59.92
2023-05-01T07:13:09.452Z,59.97
2023-05-01T07:15:36.155Z,60.14
2023-05-01T07:18:03.431Z,59.56
2023-05-01T07:20:30.702Z,59.55
2023-05-01T07:22:57.445Z,59.50
2023-05-01T07:25:25.338Z,59.41
2023-05-01T07:27:52.388Z,59.13
2023-05-01T07:30:19.222Z,59.00
2023-05-01T07:32:46.027Z,58.70
2023-05-01T07:35:13.766Z,57.92
2023-05-01T07:37:40.476Z,57.61
2023-05-01T07:40:08.052Z,56.76
2023-05-01T07:42:34.852Z,56.62
2023-05-01T07:45:01.509Z,56.07
2023-05-01T07:47:28.575Z,55.70
2023-05-01T07:49:55.698Z,55.77
2023-05-01T07:52:22.525Z,56.10
2023-05-01T07:54:51.042Z,55.81
2023-05-01T07:57:17.833Z,55.41
2023-05-01T07:59:44.775Z,55.39
2023-05-01T08:02:11.824Z,55.37
2023-05-01T08:04:38.577Z,55.26
2023-05-01T08:07:05.338Z,55.33
2023-05-01T08:09:37.143Z,54.99
2023-05-01T08:12:04.170Z,55.11
2023-05-01T08:14:31.101Z,54.93
2023-05-01T08:16:58.298Z,54.33
2023-05-01T08:19:25.434Z,54.35
2023-05-01T08:21:52.156Z,54.40
2023-05-01T08:24:18.896Z,54.55
2023-05-01T08:26:45.985Z,54.23
2023-05-01T08:29:12.697Z,54.27
2023-05-01T08:31:39.712Z,54.39
2023-05-01T08:34:06.567Z,54.13
2023-05-01T08:36:34.741Z,54.81
2023-05-01T08:39:01.699Z,54.41
2023-05-01T08:41:29.386Z,54.73
2023-05-01T08:43:58.794Z,54.29
2023-05-01T08:46:44.660Z,54.10
2023-05-01T08:49:13.550Z,54.43
2023-05-01T08:51:40.456Z,53.95
2023-05-01T08:54:08.515Z,53.97
2023-05-01T08:56:36.385Z,53.49
2023-05-01T08:59:04.932Z,53.57
2023-05-01T09:01:33.793Z,53.00
2023-05-01T09:04:03.132Z,53.29
2023-05-01T09:06:30.321Z,53.46
2023-05-01T09:08:57.059Z,52.67
2023-05-01T09:11:24.512Z,52.64
2023-05-01T09:13:52.522Z,52.64
2023-05-01T09:16:19.830Z,52.57
2023-05-01T09:18:46.926Z,52.50
2023-05-01T09:21:13.724Z,52.34
2023-05-01T09:23:41.132Z,52.49
2023-05-01T09:26:08.346Z,52.23
2023-05-01T09:28:46.827Z,52.01
2023-05-01T09:31:25.131Z,51.83
2023-05-01T09:33:57.522Z,51.23
2023-05-01T09:36:27.338Z,51.36
2023-05-01T09:38:54.694Z,50.65
2023-05-01T09:41:21.499Z,50.80
2023-05-01T09:43:52.791Z,50.67
2023-05-01T09:46:20.390Z,51.18
2023-05-01T09:49:00.576Z,51.12
2023-05-01T09:51:32.167Z,51.06
2023-05-01T09:54:01.052Z,50.50
2023-05-01T09:56:29.381Z,50.62
2023-05-01T09:58:58.172Z,50.51
2023-05-01T10:01:45.685Z,50.49
2023-05-01T10:04:13.333Z,50.44
2023-05-01T10:06:40.535Z,50.40
2023-05-01T10:09:11.047Z,50.30
2023-05-01T10:11:56.247Z,50.94
2023-05-01T10:14:24.498Z,50.19
2023-05-01T10:16:53.304Z,50.01
2023-05-01T10:19:21.330Z,49.41
2023-05-01T10:21:48.173Z,49.81
2023-05-01T10:24:17.200Z,49.30
2023-05-01T10:26:44.224Z,48.67
2023-05-01T10:29:11.205Z,48.47
2023-05-01T10:31:39.374Z,48.34
2023-05-01T10:34:07.457Z,48.52
2023-05-01T10:36:40.308Z,48.71
2023-05-01T10:39:07.350Z,48.86
2023-05-01T10:42:11.698Z,48.70
2023-05-01T10:44:38.634Z,48.42
2023-05-01T10:47:27.487Z,48.88
2023-05-01T10:50:07.759Z,49.10
2023-05-01T10:53:12.018Z,48.62
2023-05-01T10:55:39.849Z,48.37
2023-05-01T10:58:06.571Z,48.27
2023-05-01T11:00:34.510Z,47.82
2023-05-01T11:03:22.837Z,46.95
2023-05-01T11:06:05.017Z,46.45
2023-05-01T11:08:32.960Z,47.05
2023-05-01T11:11:21.848Z,46.15
2023-05-01T11:14:04.505Z,45.25
2023-05-01T11:16:40.920Z,45.84
2023-05-01T11:19:20.909Z,45.09
2023-05-01T11:21:48.129Z,44.30
2023-05-01T11:24:14.877Z,44.95
2023-05-01T11:26:43.074Z,44.70
2023-05-01T11:29:10.901Z,44.96
2023-05-01T11:31:38.524Z,45.00
2023-05-01T11:34:07.255Z,44.04
2023-05-01T11:36:50.828Z,43.92
2023-05-01T11:39:18.061Z,43.45
2023-05-01T11:41:45.051Z,44.16
2023-05-01T11:44:13.043Z,45.33
2023-05-01T11:46:39.785Z,44.53
2023-05-01T11:49:06.500Z,44.05
2023-05-01T11:51:33.429Z,43.57
2023-05-01T11:54:04.521Z,43.59
2023-05-01T11:56:32.082Z,42.26
2023-05-01T11:59:00.710Z,41.56
2023-05-01T12:01:46.852Z,41.77
2023-05-01T12:04:22.968Z,41.62
2023-05-01T12:06:50.074Z,41.44
2023-05-01T12:09:18.801Z,41.75
2023-05-01T12:11:51.895Z,41.10
2023-05-01T12:14:20.281Z,41.93
2023-05-01T12:16:47.507Z,41.96
2023-05-01T12:19:15.701Z,42.08
2023-05-01T12:21:42.524Z,42.76
2023-05-01T12:24:10.868Z,41.53
2023-05-01T12:26:38.066Z,41.75
2023-05-01T12:29:06.560Z,42.06
2023-05-01T12:31:33.865Z,42.35
2023-05-01T12:34:04.899Z,41.75
2023-05-01T12:36:33.267Z,41.43
2023-05-01T12:39:12.007Z,41.60
2023-05-01T12:41:47.114Z,42.08
2023-05-01T12:44:32.935Z,40.80
2023-05-01T12:47:01.179Z,41.22
2023-05-01T12:49:29.179Z,41.21
2023-05-01T12:51:57.782Z,41.95
2023-05-01T12:54:27.503Z,42.26
2023-05-01T12:57:05.544Z,42.90
2023-05-01T12:59:32.512Z,43.01
2023-05-01T13:02:00.814Z,42.56
2023-05-01T13:04:31.260Z,41.57
2023-05-01T13:07:12.005Z,42.73
2023-05-01T13:09:39.646Z,41.92
2023-05-01T13:12:07.258Z,41.90
2023-05-01T13:14:41.136Z,40.79
2023-05-01T13:17:15.122Z,41.06
2023-05-01T13:19:41.844Z,40.12
2023-05-01T13:22:08.581Z,40.43
2023-05-01T13:24:37.152Z,40.31
2023-05-01T13:27:05.195Z,39.73
2023-05-01T13:29:32.790Z,40.74
2023-05-01T13:31:59.944Z,40.40
2023-05-01T13:34:31.372Z,41.27
2023-05-01T13:36:59.102Z,41.21
2023-05-01T13:39:25.904Z,41.18
2023-05-01T13:41:53.192Z,41.15
2023-05-01T13:44:21.341Z,42.11
2023-05-01T13:46:48.573Z,42.20
2023-05-01T13:49:18.412Z,42.47
2023-05-01T13:51:46.735Z,43.25
2023-05-01T13:54:13.898Z,43.30
2023-05-01T13:56:41.457Z,43.77
2023-05-01T13:59:08.959Z,44.05
2023-05-01T14:01:41.823Z,43.94
2023-05-01T14:04:15.661Z,44.33
2023-05-01T14:06:43.984Z,44.46
2023-05-01T14:09:11.310Z,44.74
2023-05-01T14:11:46.950Z,44.90
2023-05-01T14:14:18.192Z,45.09
2023-05-01T14:16:49.309Z,45.69
2023-05-01T14:19:18.355Z,46.26
2023-05-01T14:21:45.636Z,47.64
2023-05-01T14:24:13.142Z,49.30
2023-05-01T14:26:42.663Z,51.13
2023-05-01T14:29:17.481Z,52.43
2023-05-01T14:31:44.440Z,54.12
2023-05-01T14:34:16.193Z,55.33
2023-05-01T14:36:43.802Z,57.75
2023-05-01T14:39:10.721Z,58.69
2023-05-01T14:41:40.961Z,59.70
2023-05-01T14:44:12.130Z,58.45
2023-05-01T14:46:46.324Z,58.02
2023-05-01T14:49:21.207Z,58.85
2023-05-01T14:51:48.919Z,58.50
2023-05-01T14:54:16.138Z,58.13
2023-05-01T14:56:43.639Z,57.94
2023-05-01T14:59:10.346Z,57.90
2023-05-01T15:01:37.224Z,57.42
2023-05-01T15:04:06.461Z,57.79
2023-05-01T15:06:36.984Z,57.91
2023-05-01T15:09:05.461Z,58.60
2023-05-01T15:11:32.219Z,58.23
2023-05-01T15:13:59.031Z,58.65
2023-05-01T15:16:25.916Z,59.12
2023-05-01T15:18:52.683Z,59.54
2023-05-01T15:21:19.475Z,59.78
2023-05-01T15:23:46.406Z,59.90
2023-05-01T15:26:13.487Z,60.98
2023-05-01T15:28:40.197Z,60.92
2023-05-01T15:31:07.264Z,61.50
2023-05-01T15:33:34.075Z,62.01
2023-05-01T15:36:00.910Z,62.92
2023-05-01T15:38:28.531Z,64.15
2023-05-01T15:40:56.454Z,66.79
2023-05-01T15:43:23.640Z,68.76
2023-05-01T15:45:51.502Z,70.04
2023-05-01T15:48:18.394Z,71.75
2023-05-01T15:50:48.124Z,72.56
2023-05-01T15:53:17.211Z,73.71
2023-05-01T15:55:44.026Z,74.82
2023-05-01T15:58:11.204Z,76.07
2023-05-01T16:00:39.876Z,76.18
2023-05-01T16:03:08.516Z,76.17
2023-05-01T16:05:37.081Z,76.87
2023-05-01T16:08:06.189Z,77.19
2023-05-01T16:10:37.396Z,76.96
2023-05-01T16:13:06.555Z,77.20
2023-05-01T16:15:34.135Z,77.32
2023-05-01T16:18:04.145Z,78.03
2023-05-01T16:20:35.443Z,79.45
2023-05-01T16:23:02.292Z,79.55
2023-05-01T16:25:29.080Z,80.07
2023-05-01T16:27:55.863Z,80.50
2023-05-01T16:30:24.826Z,80.17
2023-05-01T16:32:51.755Z,80.49
2023-05-01T16:35:18.882Z,80.67
2023-05-01T16:37:46.068Z,80.85
2023-05-01T16:40:19.005Z,80.76
2023-05-01T16:42:56.280Z,80.72
2023-05-01T16:45:23.132Z,79.96
2023-05-01T16:47:49.883Z,78.65
2023-05-01T16:50:17.283Z,78.74
2023-05-01T16:52:44.051Z,78.80
2023-05-01T16:55:10.841Z,77.48
2023-05-01T16:57:37.912Z,75.85
2023-05-01T17:00:05.649Z,74.21
2023-05-01T17:02:33.674Z,73.22
2023-05-01T17:05:00.992Z,71.65
2023-05-01T17:07:28.084Z,70.64
2023-05-01T17:09:55.056Z,69.15
2023-05-01T17:12:22.031Z,68.17
2023-05-01T17:14:48.828Z,68.97
2023-05-01T17:17:17.981Z,69.00
2023-05-01T17:19:44.927Z,68.55
2023-05-01T17:22:11.732Z,69.12
2023-05-01T17:24:38.685Z,69.27
2023-05-01T17:27:06.036Z,68.80
2023-05-01T17:29:32.747Z,68.75
2023-05-01T17:31:59.503Z,68.45
2023-05-01T17:34:26.228Z,68.30
2023-05-01T17:36:53.114Z,67.75
2023-05-01T17:39:22.092Z,68.00
2023-05-01T17:41:51.826Z,68.01
2023-05-01T17:44:18.606Z,68.45
2023-05-01T17:46:45.354Z,68.32
2023-05-01T17:49:12.133Z,68.31
2023-05-01T17:51:38.950Z,67.48
2023-05-01T17:54:06.226Z,66.61
2023-05-01T17:56:32.971Z,66.60
2023-05-01T17:58:59.855Z,66.26
2023-05-01T18:01:26.893Z,66.55
2023-05-01T18:03:54.316Z,66.54
2023-05-01T18:06:21.259Z,66.65
2023-05-01T18:08:50.279Z,66.01
2023-05-01T18:11:17.085Z,65.85
2023-05-01T18:13:47.519Z,65.48
2023-05-01T18:16:18.814Z,64.66
2023-05-01T18:18:51.654Z,64.71
2023-05-01T18:21:18.334Z,64.72
2023-05-01T18:23:46.495Z,64.58
2023-05-01T18:26:14.601Z,64.55
2023-05-01T18:28:41.351Z,65.21
2023-05-01T18:31:08.278Z,65.59
2023-05-01T18:33:35.502Z,66.01
2023-05-01T18:36:02.418Z,66.42
2023-05-01T18:38:29.206Z,66.84
2023-05-01T18:40:56.103Z,67.23
2023-05-01T18:43:22.914Z,67.99
2023-05-01T18:45:49.814Z,68.50
2023-05-01T18:48:16.709Z,68.72
2023-05-01T18:50:49.083Z,69.28
2023-05-01T18:53:21.602Z,69.84
2023-05-01T18:55:48.345Z,70.39
2023-05-01T18:58:15.233Z,70.62
2023-05-01T19:00:41.968Z,71.08
2023-05-01T19:03:08.814Z,71.22
2023-05-01T19:05:35.612Z,71.65
2023-05-01T19:08:05.384Z,72.04
2023-05-01T19:10:32.234Z,72.91
2023-05-01T19:13:00.662Z,73.07
2023-05-01T19:15:27.491Z,73.12
2023-05-01T19:17:54.645Z,72.82
2023-05-01T19:20:21.740Z,72.73
2023-05-01T19:22:48.498Z,72.65
2023-05-01T19:25:15.329Z,72.93
2023-05-01T19:27:42.311Z,72.56
2023-05-01T19:30:09.332Z,72.77
2023-05-01T19:32:36.612Z,72.73
2023-05-01T19:35:03.707Z,72.98
2023-05-01T19:37:30.454Z,73.01
2023-05-01T19:39:57.413Z,73.72
2023-05-01T19:42:24.403Z,73.55
2023-05-01T19:44:51.211Z,73.71
2023-05-01T19:47:17.974Z,73.70
2023-05-01T19:49:45.281Z,73.53
2023-05-01T19:52:12.027Z,73.97
2023-05-01T19:54:38.831Z,74.10
2023-05-01T19:57:05.878Z,74.11
2023-05-01T19:59:32.700Z,74.55
2023-05-01T20:02:01.099Z,74.53
2023-05-01T20:04:28.552Z,74.62
2023-05-01T20:06:55.457Z,75.00
2023-05-01T20:09:22.324Z,75.66
2023-05-01T20:11:49.120Z,76.59
2023-05-01T20:14:20.942Z,77.53
2023-05-01T20:16:49.355Z,78.10
2023-05-01T20:19:17.860Z,78.18
2023-05-01T20:21:44.879Z,78.00
2023-05-01T20:24:11.725Z,78.11
2023-05-01T20:26:38.877Z,78.04
2023-05-01T20:29:05.702Z,77.40
2023-05-01T20:31:34.215Z,77.33
2023-05-01T20:34:01.062Z,77.09
2023-05-01T20:36:28.627Z,76.82
2023-05-01T20:38:58.084Z,76.59
2023-05-01T20:41:25.806Z,76.79
2023-05-01T20:43:52.869Z,76.91
2023-05-01T20:46:20.083Z,76.90
2023-05-01T20:48:47.622Z,76.94
2023-05-01T20:51:15.986Z,77.52
2023-05-01T20:53:42.681Z,77.33
2023-05-01T20:56:09.548Z,77.40
2023-05-01T20:58:36.453Z,77.46
2023-05-01T21:01:03.395Z,77.52
2023-05-01T21:03:30.441Z,77.72
2023-05-01T21:06:01.332Z,77.77
2023-05-01T21:08:28.715Z,78.15
2023-05-01T21:10:55.560Z,78.19
2023-05-01T21:13:24.924Z,78.29
2023-05-01T21:15:52.534Z,78.53
2023-05-01T21:18:20.665Z,78.09
2023-05-01T21:20:48.886Z,78.63
2023-05-01T21:23:17.254Z,78.58
2023-05-01T21:25:44.608Z,79.12
2023-05-01T21:28:12.918Z,79.07
2023-05-01T21:30:40.128Z,78.93
2023-05-01T21:33:08.838Z,79.72
2023-05-01T21:35:35.602Z,79.60
2023-05-01T21:38:04.405Z,80.04
2023-05-01T21:40:31.230Z,80.63
2023-05-01T21:42:57.947Z,80.35
2023-05-01T21:45:24.794Z,80.44
2023-05-01T21:47:52.144Z,80.30
2023-05-01T21:50:20.918Z,80.40
2023-05-01T21:52:49.375Z,80.57
2023-05-01T21:55:22.162Z,81.24
2023-05-01T21:57:52.256Z,80.87
2023-05-01T22:00:20.244Z,80.93
2023-05-01T22:02:49.148Z,81.37
2023-05-01T22:05:18.170Z,80.95
2023-05-01T22:07:46.308Z,81.26
2023-05-01T22:10:17.338Z,81.21
2023-05-01T22:12:44.954Z,81.62
2023-05-01T22:15:12.791Z,81.24
2023-05-01T22:17:40.074Z,81.08
2023-05-01T22:20:07.986Z,80.94
2023-05-01T22:22:35.437Z,81.29
2023-05-01T22:25:02.765Z,81.21
2023-05-01T22:27:29.815Z,81.42
2023-05-01T22:29:56.472Z,81.27
2023-05-01T22:32:23.427Z,81.72
2023-05-01T22:34:50.321Z,81.56
2023-05-01T22:37:17.662Z,81.69
2023-05-01T22:39:44.372Z,82.16
2023-05-01T22:42:11.102Z,82.13
2023-05-01T22:44:37.805Z,82.62
2023-05-01T22:47:04.487Z,82.96
2023-05-01T22:49:32.545Z,82.98
2023-05-01T22:51:59.914Z,83.08
2023-05-01T22:54:26.624Z,83.51
2023-05-01T22:56:53.300Z,83.60
2023-05-01T22:59:21.913Z,84.14
2023-05-01T23:01:48.818Z,84.36
2023-05-01T23:04:16.045Z,84.88
2023-05-01T23:06:43.435Z,84.49
2023-05-01T23:09:10.235Z,85.14
2023-05-01T23:11:36.968Z,84.75
2023-05-01T23:14:03.866Z,85.48
2023-05-01T23:16:36.042Z,85.32
2023-05-01T23:19:02.824Z,85.67
2023-05-01T23:21:29.552Z,85.84
2023-05-01T23:23:56.241Z,85.89
2023-05-01T23:26:28.931Z,86.28
2023-05-01T23:28:55.725Z,86.14
2023-05-01T23:31:26.199Z,86.02
2023-05-01T23:33:53.535Z,86.56
2023-05-01T23:36:20.234Z,86.78
2023-05-01T23:38:47.591Z,86.72
2023-05-01T23:41:15.041Z,87.11
2023-05-01T23:43:42.609Z,87.25
2023-05-01T23:46:09.472Z,87.34
2023-05-01T23:48:36.480Z,87.92
2023-05-01T23:51:03.722Z,88.30
2023-05-01T23:53:30.479Z,88.51
2023-05-01T23:55:57.256Z,88.69
2023-05-01T23:58:24.187Z,89.25
